createdAt,value
2023-03-04T00:00:11.188Z,14.47
2023-03-04T00:02:39.402Z,11.17
2023-03-04T00:05:09.136Z,14.93
2023-03-04T00:07:39.017Z,13.60
2023-03-04T00:10:08.746Z,17.27
2023-03-04T00:12:37.208Z,18.93
2023-03-04T00:15:06.837Z,16.10
2023-03-04T00:17:35.164Z,16.90
2023-03-04T00:20:03.435Z,15.73
2023-03-04T00:22:31.713Z,12.83
2023-03-04T00:25:01.369Z,13.40
2023-03-04T00:27:29.781Z,14.83
2023-03-04T00:29:58.720Z,15.00
2023-03-04T00:32:27.038Z,15.37
2023-03-04T00:34:55.320Z,13.47
2023-03-04T00:37:23.797Z,12.60
2023-03-04T00:39:52.119Z,9.33
2023-03-04T00:42:24.337Z,12.70
2023-03-04T00:44:53.434Z,10.63
2023-03-04T00:47:21.977Z,13.20
2023-03-04T00:49:50.743Z,11.53
2023-03-04T00:52:19.383Z,12.70
2023-03-04T00:54:47.751Z,10.73
2023-03-04T00:57:15.952Z,10.67
2023-03-04T00:59:46.308Z,11.63
2023-03-04T01:02:14.770Z,12.33
2023-03-04T01:04:43.122Z,8.67
2023-03-04T01:07:11.749Z,13.53
2023-03-04T01:09:40.876Z,8.33
2023-03-04T01:12:09.451Z,11.63
2023-03-04T01:14:38.836Z,11.87
2023-03-04T01:17:08.557Z,7.20
2023-03-04T01:19:37.052Z,8.37
2023-03-04T01:22:05.332Z,12.67
2023-03-04T01:24:33.909Z,11.77
2023-03-04T01:27:02.326Z,14.83
2023-03-04T01:29:30.562Z,11.13
2023-03-04T01:31:58.973Z,11.53
2023-03-04T01:34:28.641Z,8.13
2023-03-04T01:36:57.065Z,7.27
2023-03-04T01:39:25.370Z,11.30
2023-03-04T01:41:55.882Z,11.63
2023-03-04T01:44:24.340Z,11.20
2023-03-04T01:46:55.734Z,12.87
2023-03-04T01:49:27.866Z,14.03
2023-03-04T01:51:56.759Z,13.13
2023-03-04T01:54:25.081Z,9.20
2023-03-04T01:56:54.222Z,16.73
2023-03-04T01:59:27.461Z,10.60
2023-03-04T02:02:01.699Z,12.90
2023-03-04T02:04:35.655Z,8.00
2023-03-04T02:07:06.062Z,10.00
2023-03-04T02:09:36.087Z,10.40
2023-03-04T02:12:05.138Z,11.77
2023-03-04T02:14:33.721Z,7.17
2023-03-04T02:17:02.056Z,11.60
2023-03-04T02:19:45.964Z,7.57
2023-03-04T02:22:14.446Z,17.33
2023-03-04T02:24:48.608Z,13.97
2023-03-04T02:27:19.955Z,9.60
2023-03-04T02:29:50.842Z,11.83
2023-03-04T02:32:19.415Z,13.20
2023-03-04T02:34:50.892Z,10.17
2023-03-04T02:37:21.670Z,9.53
2023-03-04T02:39:53.242Z,11.00
2023-03-04T02:42:23.465Z,13.50
2023-03-04T02:45:01.806Z,10.70
2023-03-04T02:47:30.469Z,10.77
2023-03-04T02:49:58.798Z,10.23
2023-03-04T02:52:27.808Z,14.23
2023-03-04T02:54:56.368Z,14.67
2023-03-04T02:57:27.672Z,11.67
2023-03-04T02:59:56.512Z,13.33
2023-03-04T03:02:28.284Z,22.67
2023-03-04T03:04:56.787Z,14.87
2023-03-04T03:07:28.012Z,11.93
2023-03-04T03:09:56.279Z,13.57
2023-03-04T03:12:24.642Z,8.83
2023-03-04T03:14:54.714Z,15.63
2023-03-04T03:17:24.828Z,12.07
2023-03-04T03:19:53.255Z,11.00
2023-03-04T03:22:23.628Z,14.27
2023-03-04T03:24:52.327Z,14.33
2023-03-04T03:27:20.619Z,13.47
2023-03-04T03:29:49.095Z,15.23
2023-03-04T03:32:18.832Z,14.90
2023-03-04T03:34:47.277Z,11.57
2023-03-04T03:37:15.852Z,13.73
2023-03-04T03:39:45.029Z,12.27
2023-03-04T03:42:13.709Z,13.60
2023-03-04T03:44:42.036Z,17.07
2023-03-04T03:47:10.384Z,15.70
2023-03-04T03:49:39.947Z,8.60
2023-03-04T03:52:09.194Z,11.00
2023-03-04T03:54:37.424Z,13.73
2023-03-04T03:57:05.866Z,10.03
2023-03-04T03:59:34.383Z,10.43
2023-03-04T04:02:02.778Z,12.33
2023-03-04T04:04:31.196Z,11.30
2023-03-04T04:07:00.900Z,11.73
2023-03-04T04:09:29.081Z,12.67
2023-03-04T04:11:58.063Z,11.53
2023-03-04T04:14:26.492Z,12.93
2023-03-04T04:16:54.886Z,10.33
2023-03-04T04:19:23.379Z,15.67
2023-03-04T04:21:51.893Z,9.43
2023-03-04T04:24:21.619Z,12.23
2023-03-04T04:26:49.890Z,11.47
2023-03-04T04:29:18.649Z,15.43
2023-03-04T04:31:46.864Z,8.70
2023-03-04T04:34:15.244Z,17.87
2023-03-04T04:36:43.569Z,9.13
2023-03-04T04:39:11.967Z,12.23
2023-03-04T04:41:44.644Z,17.13
2023-03-04T04:44:14.749Z,14.43
2023-03-04T04:46:43.742Z,14.40
2023-03-04T04:49:12.076Z,11.83
2023-03-04T04:51:40.786Z,12.63
2023-03-04T04:54:09.979Z,8.10
2023-03-04T04:56:38.185Z,9.80
2023-03-04T04:59:08.594Z,10.60
2023-03-04T05:01:37.426Z,15.47
2023-03-04T05:04:06.359Z,9.30
2023-03-04T05:06:34.652Z,9.47
2023-03-04T05:09:03.242Z,12.40
2023-03-04T05:11:31.579Z,9.33
2023-03-04T05:13:59.798Z,8.63
2023-03-04T05:16:29.417Z,14.90
2023-03-04T05:18:57.712Z,14.40
2023-03-04T05:21:26.285Z,12.47
2023-03-04T05:23:54.742Z,12.03
2023-03-04T05:26:23.216Z,17.43
2023-03-04T05:28:51.412Z,14.87
2023-03-04T05:31:19.885Z,19.40
2023-03-04T05:33:49.533Z,15.00
2023-03-04T05:36:17.793Z,18.10
2023-03-04T05:38:46.094Z,20.00
2023-03-04T05:41:14.394Z,16.90
2023-03-04T05:43:43.583Z,19.23
2023-03-04T05:46:16.096Z,14.73
2023-03-04T05:48:44.802Z,12.10
2023-03-04T05:51:14.321Z,23.17
2023-03-04T05:53:42.950Z,19.93
2023-03-04T05:56:14.485Z,24.83
2023-03-04T05:58:43.183Z,21.67
2023-03-04T06:01:12.250Z,22.53
2023-03-04T06:03:40.577Z,17.73
2023-03-04T06:06:08.877Z,21.50
2023-03-04T06:08:38.599Z,24.80
2023-03-04T06:11:08.009Z,20.47
2023-03-04T06:13:38.154Z,25.40
2023-03-04T06:16:07.816Z,31.90
2023-03-04T06:18:36.452Z,17.47
2023-03-04T06:21:05.808Z,23.60
2023-03-04T06:23:34.181Z,28.77
2023-03-04T06:26:04.400Z,19.97
2023-03-04T06:28:32.736Z,21.77
2023-03-04T06:31:01.045Z,21.07
2023-03-04T06:33:29.600Z,25.50
2023-03-04T06:35:58.896Z,16.43
2023-03-04T06:38:27.620Z,16.20
2023-03-04T06:40:57.560Z,23.93
2023-03-04T06:43:27.388Z,21.70
2023-03-04T06:45:55.676Z,22.07
2023-03-04T06:48:23.893Z,13.20
2023-03-04T06:50:52.342Z,16.33
2023-03-04T06:53:20.685Z,15.73
2023-03-04T06:55:50.393Z,18.30
2023-03-04T06:58:18.739Z,15.77
2023-03-04T07:00:48.437Z,13.97
2023-03-04T07:03:16.712Z,20.07
2023-03-04T07:05:45.385Z,17.70
2023-03-04T07:08:13.890Z,14.23
2023-03-04T07:10:42.325Z,15.20
2023-03-04T07:13:10.622Z,13.73
2023-03-04T07:15:39.110Z,9.47
2023-03-04T07:18:08.778Z,19.57
2023-03-04T07:20:37.979Z,16.07
2023-03-04T07:23:06.360Z,17.47
2023-03-04T07:25:34.683Z,19.53
2023-03-04T07:28:02.985Z,19.10
2023-03-04T07:30:31.291Z,16.47
2023-03-04T07:32:59.955Z,15.73
2023-03-04T07:35:29.676Z,12.17
2023-03-04T07:37:58.045Z,21.43
2023-03-04T07:40:27.047Z,17.33
2023-03-04T07:42:56.900Z,18.27
2023-03-04T07:45:26.484Z,18.17
2023-03-04T07:47:55.153Z,21.97
2023-03-04T07:50:23.634Z,31.30
2023-03-04T07:52:53.579Z,23.03
2023-03-04T07:55:21.909Z,23.57
2023-03-04T07:57:50.232Z,25.07
2023-03-04T08:00:20.047Z,19.43
2023-03-04T08:02:48.558Z,22.83
2023-03-04T08:05:17.173Z,25.23
2023-03-04T08:07:45.417Z,14.90
2023-03-04T08:10:15.181Z,19.23
2023-03-04T08:12:43.408Z,22.93
2023-03-04T08:15:13.035Z,22.77
2023-03-04T08:17:41.312Z,20.53
2023-03-04T08:20:11.886Z,22.17
2023-03-04T08:22:40.398Z,17.37
2023-03-04T08:25:09.632Z,20.90
2023-03-04T08:27:39.409Z,20.67
2023-03-04T08:30:09.550Z,16.30
2023-03-04T08:32:38.073Z,21.20
2023-03-04T08:35:07.050Z,30.47
2023-03-04T08:37:35.320Z,26.17
2023-03-04T08:40:03.655Z,21.63
2023-03-04T08:42:31.937Z,21.83
2023-03-04T08:45:08.093Z,27.17
2023-03-04T08:47:36.342Z,18.43
2023-03-04T08:50:05.747Z,27.87
2023-03-04T08:52:34.597Z,17.20
2023-03-04T08:55:03.233Z,19.97
2023-03-04T08:57:32.031Z,27.13
2023-03-04T09:00:00.313Z,26.83
2023-03-04T09:02:29.887Z,26.50
2023-03-04T09:04:58.170Z,19.93
2023-03-04T09:07:26.570Z,21.63
2023-03-04T09:09:54.784Z,19.47
2023-03-04T09:12:22.998Z,27.27
2023-03-04T09:15:04.603Z,15.53
2023-03-04T09:17:40.945Z,26.07
2023-03-04T09:20:13.043Z,20.43
2023-03-04T09:22:43.288Z,27.27
2023-03-04T09:25:16.240Z,25.13
2023-03-04T09:27:44.586Z,15.67
2023-03-04T09:30:14.150Z,25.17
2023-03-04T09:32:43.814Z,25.00
2023-03-04T09:35:12.087Z,18.23
2023-03-04T09:37:41.616Z,22.77
2023-03-04T09:40:18.705Z,24.77
2023-03-04T09:42:52.260Z,27.77
2023-03-04T09:45:25.120Z,19.10
2023-03-04T09:47:57.761Z,26.27
2023-03-04T09:50:27.887Z,20.93
2023-03-04T09:53:14.829Z,20.97
2023-03-04T09:55:47.611Z,23.37
2023-03-04T09:58:38.640Z,27.50
2023-03-04T10:01:18.050Z,28.40
2023-03-04T10:03:54.364Z,21.13
2023-03-04T10:06:25.031Z,22.40
2023-03-04T10:09:02.827Z,16.33
2023-03-04T10:11:38.453Z,22.60
2023-03-04T10:14:32.643Z,21.00
2023-03-04T10:17:09.826Z,26.27
2023-03-04T10:20:00.096Z,23.43
2023-03-04T10:22:38.204Z,19.60
2023-03-04T10:25:20.773Z,20.73
2023-03-04T10:27:56.241Z,26.30
2023-03-04T10:30:42.207Z,16.30
2023-03-04T10:33:14.757Z,25.20
2023-03-04T10:35:49.366Z,21.20
2023-03-04T10:38:21.033Z,28.80
2023-03-04T10:40:49.768Z,22.70
2023-03-04T10:43:20.335Z,22.10
2023-03-04T10:45:50.620Z,25.83
2023-03-04T10:48:25.412Z,19.50
2023-03-04T10:50:55.310Z,16.93
2023-03-04T10:53:34.447Z,22.53
2023-03-04T10:56:03.122Z,25.27
2023-03-04T10:58:31.582Z,22.83
2023-03-04T11:01:06.866Z,17.07
2023-03-04T11:03:38.674Z,17.33
2023-03-04T11:06:19.067Z,19.27
2023-03-04T11:08:59.035Z,30.70
2023-03-04T11:11:34.702Z,27.60
2023-03-04T11:14:14.467Z,19.43
2023-03-04T11:16:54.089Z,15.83
2023-03-04T11:19:28.395Z,19.20
2023-03-04T11:21:59.703Z,26.07
2023-03-04T11:24:31.566Z,26.67
2023-03-04T11:27:06.816Z,22.87
2023-03-04T11:29:45.036Z,22.27
2023-03-04T11:32:21.822Z,22.77
2023-03-04T11:34:56.450Z,18.87
2023-03-04T11:37:34.237Z,18.57
2023-03-04T11:40:11.825Z,20.23
2023-03-04T11:42:46.961Z,26.10
2023-03-04T11:45:28.713Z,20.07
2023-03-04T11:48:10.314Z,14.00
2023-03-04T11:50:49.834Z,24.10
2023-03-04T11:53:41.802Z,22.63
2023-03-04T11:56:28.350Z,28.33
2023-03-04T11:59:42.825Z,16.20
2023-03-04T12:02:19.541Z,19.57
2023-03-04T12:05:18.712Z,19.83
2023-03-04T12:08:26.720Z,19.50
2023-03-04T12:11:06.184Z,25.47
2023-03-04T12:13:56.862Z,15.13
2023-03-04T12:17:07.408Z,20.37
2023-03-04T12:20:01.982Z,36.60
2023-03-04T12:22:45.069Z,26.20
2023-03-04T12:25:38.075Z,20.30
2023-03-04T12:28:31.988Z,21.13
2023-03-04T12:31:22.427Z,25.70
2023-03-04T12:34:14.118Z,15.70
2023-03-04T12:36:56.779Z,19.13
2023-03-04T12:39:33.832Z,23.23
2023-03-04T12:42:19.547Z,11.90
2023-03-04T12:45:03.316Z,17.33
2023-03-04T12:47:46.178Z,26.73
2023-03-04T12:50:36.736Z,14.50
2023-03-04T12:53:22.081Z,16.43
2023-03-04T12:55:52.476Z,20.43
2023-03-04T12:58:26.803Z,21.90
2023-03-04T13:01:07.841Z,22.13
2023-03-04T13:03:53.515Z,17.40
2023-03-04T13:06:36.521Z,14.60
2023-03-04T13:09:16.276Z,17.83
2023-03-04T13:11:55.907Z,17.60
2023-03-04T13:14:32.133Z,14.87
2023-03-04T13:17:30.152Z,22.10
2023-03-04T13:20:18.747Z,16.70
2023-03-04T13:22:54.754Z,21.57
2023-03-04T13:25:36.732Z,20.53
2023-03-04T13:28:29.238Z,15.43
2023-03-04T13:31:24.025Z,18.33
2023-03-04T13:34:00.979Z,22.00
2023-03-04T13:37:00.071Z,19.77
2023-03-04T13:39:34.236Z,16.67
2023-03-04T13:42:04.877Z,10.90
2023-03-04T13:44:51.602Z,17.80
2023-03-04T13:47:31.638Z,14.00
2023-03-04T13:50:39.769Z,14.50
2023-03-04T13:53:40.098Z,19.73
2023-03-04T13:56:36.559Z,14.60
2023-03-04T13:59:31.063Z,16.40
2023-03-04T14:02:03.160Z,21.90
2023-03-04T14:04:36.030Z,16.57
2023-03-04T14:07:24.361Z,16.67
2023-03-04T14:10:02.473Z,16.87
2023-03-04T14:12:36.072Z,16.17
2023-03-04T14:15:25.115Z,11.43
2023-03-04T14:17:56.827Z,17.43
2023-03-04T14:20:31.518Z,19.67
2023-03-04T14:23:03.601Z,9.63
2023-03-04T14:25:36.455Z,12.53
2023-03-04T14:28:13.504Z,16.30
2023-03-04T14:30:44.589Z,15.60
2023-03-04T14:33:20.601Z,13.13
2023-03-04T14:35:52.113Z,15.37
2023-03-04T14:38:27.072Z,17.43
2023-03-04T14:41:01.472Z,16.90
2023-03-04T14:43:33.972Z,12.77
2023-03-04T14:46:04.702Z,18.27
2023-03-04T14:48:35.751Z,15.70
2023-03-04T14:51:05.625Z,17.37
2023-03-04T14:53:35.798Z,11.70
2023-03-04T14:56:07.400Z,17.87
2023-03-04T14:58:37.788Z,12.40
2023-03-04T15:01:14.815Z,16.27
2023-03-04T15:03:47.104Z,18.03
2023-03-04T15:06:21.251Z,14.43
2023-03-04T15:08:59.110Z,18.40
2023-03-04T15:11:31.823Z,12.47
2023-03-04T15:14:02.639Z,13.63
2023-03-04T15:16:56.738Z,20.97
2023-03-04T15:19:30.104Z,14.97
2023-03-04T15:22:06.897Z,14.23
2023-03-04T15:24:36.507Z,17.67
2023-03-04T15:27:08.087Z,18.03
2023-03-04T15:29:36.459Z,11.73
2023-03-04T15:32:05.478Z,15.47
2023-03-04T15:34:33.868Z,14.07
2023-03-04T15:37:02.402Z,21.43
2023-03-04T15:39:30.862Z,13.67
2023-03-04T15:42:01.913Z,9.30
2023-03-04T15:44:30.241Z,11.90
2023-03-04T15:46:58.574Z,10.47
2023-03-04T15:49:26.937Z,15.67
2023-03-04T15:51:55.215Z,16.17
2023-03-04T15:54:29.678Z,18.50
2023-03-04T15:57:00.520Z,17.47
2023-03-04T15:59:29.484Z,17.23
2023-03-04T16:01:57.861Z,15.50
2023-03-04T16:04:26.322Z,16.87
2023-03-04T16:06:58.487Z,18.83
2023-03-04T16:09:26.771Z,12.80
2023-03-04T16:11:56.400Z,18.53
2023-03-04T16:14:26.823Z,15.43
2023-03-04T16:16:55.114Z,13.00
2023-03-04T16:19:23.361Z,17.23
2023-03-04T16:21:51.811Z,22.23
2023-03-04T16:24:21.968Z,12.40
2023-03-04T16:26:50.404Z,18.97
2023-03-04T16:29:18.603Z,13.63
2023-03-04T16:31:48.278Z,17.07
2023-03-04T16:34:16.554Z,11.10
2023-03-04T16:36:44.865Z,18.53
2023-03-04T16:39:23.341Z,9.83
2023-03-04T16:41:52.569Z,16.67
2023-03-04T16:44:20.901Z,16.53
2023-03-04T16:46:50.589Z,15.57
2023-03-04T16:49:18.895Z,12.77
2023-03-04T16:51:51.475Z,10.27
2023-03-04T16:54:30.531Z,19.67
2023-03-04T16:56:59.189Z,15.77
2023-03-04T16:59:28.482Z,15.67
2023-03-04T17:01:58.377Z,13.53
2023-03-04T17:04:26.681Z,16.00
2023-03-04T17:06:54.965Z,13.03
2023-03-04T17:09:23.228Z,14.97
2023-03-04T17:11:52.998Z,13.93
2023-03-04T17:14:21.241Z,13.43
2023-03-04T17:16:49.531Z,12.50
2023-03-04T17:19:19.167Z,11.10
2023-03-04T17:21:47.408Z,10.00
2023-03-04T17:24:15.816Z,22.20
2023-03-04T17:26:44.087Z,17.00
2023-03-04T17:29:12.328Z,13.67
2023-03-04T17:31:40.656Z,12.70
2023-03-04T17:34:09.036Z,17.00
2023-03-04T17:36:38.661Z,12.57
2023-03-04T17:39:08.803Z,11.67
2023-03-04T17:41:37.068Z,12.17
2023-03-04T17:44:06.755Z,15.27
2023-03-04T17:46:35.407Z,13.23
2023-03-04T17:49:03.730Z,8.57
2023-03-04T17:51:34.766Z,13.60
2023-03-04T17:54:06.490Z,16.43
2023-03-04T17:56:36.548Z,12.43
2023-03-04T17:59:09.516Z,15.67
2023-03-04T18:01:37.778Z,11.17
2023-03-04T18:04:06.570Z,12.17
2023-03-04T18:06:34.968Z,14.83
2023-03-04T18:09:04.937Z,15.00
2023-03-04T18:11:36.115Z,15.13
2023-03-04T18:14:05.389Z,15.17
2023-03-04T18:16:34.820Z,11.43
2023-03-04T18:19:04.558Z,12.57
2023-03-04T18:21:33.743Z,14.10
2023-03-04T18:24:04.161Z,14.17
2023-03-04T18:26:32.833Z,18.63
2023-03-04T18:29:01.012Z,19.17
2023-03-04T18:31:32.253Z,15.77
2023-03-04T18:34:01.745Z,12.50
2023-03-04T18:36:30.644Z,11.87
2023-03-04T18:38:59.480Z,20.23
2023-03-04T18:41:29.435Z,10.43
2023-03-04T18:43:57.889Z,11.47
2023-03-04T18:46:34.138Z,14.23
2023-03-04T18:49:06.374Z,12.43
2023-03-04T18:51:34.739Z,9.93
2023-03-04T18:54:02.992Z,13.33
2023-03-04T18:56:39.349Z,8.73
2023-03-04T18:59:12.215Z,18.33
2023-03-04T19:01:40.609Z,18.10
2023-03-04T19:04:09.322Z,17.50
2023-03-04T19:06:37.715Z,15.03
2023-03-04T19:09:07.382Z,9.50
2023-03-04T19:11:37.053Z,12.63
2023-03-04T19:14:05.817Z,10.17
2023-03-04T19:16:34.291Z,9.90
2023-03-04T19:19:02.571Z,14.67
2023-03-04T19:21:30.881Z,9.10
2023-03-04T19:23:59.375Z,9.17
2023-03-04T19:26:27.750Z,10.27
2023-03-04T19:28:57.499Z,13.57
2023-03-04T19:31:25.987Z,11.67
2023-03-04T19:33:54.516Z,15.80
2023-03-04T19:36:22.851Z,20.17
2023-03-04T19:38:51.174Z,12.93
2023-03-04T19:41:20.112Z,9.37
2023-03-04T19:43:48.413Z,12.10
2023-03-04T19:46:18.545Z,15.00
2023-03-04T19:48:50.020Z,10.07
2023-03-04T19:51:20.880Z,7.77
2023-03-04T19:53:50.714Z,11.30
2023-03-04T19:56:20.427Z,11.00
2023-03-04T19:58:48.871Z,15.73
2023-03-04T20:01:27.634Z,6.87
2023-03-04T20:03:57.448Z,14.87
2023-03-04T20:06:27.052Z,9.87
2023-03-04T20:08:59.037Z,13.37
2023-03-04T20:11:28.600Z,12.93
2023-03-04T20:13:58.296Z,16.70
2023-03-04T20:16:28.451Z,9.00
2023-03-04T20:18:57.874Z,15.73
2023-03-04T20:21:28.654Z,11.47
2023-03-04T20:23:56.851Z,7.23
2023-03-04T20:26:25.224Z,9.40
2023-03-04T20:28:53.467Z,17.27
2023-03-04T20:31:24.797Z,9.83
2023-03-04T20:33:56.286Z,10.73
2023-03-04T20:36:27.412Z,11.40
2023-03-04T20:39:02.312Z,12.03
2023-03-04T20:41:31.142Z,9.63
2023-03-04T20:43:59.557Z,15.13
2023-03-04T20:46:32.211Z,11.17
2023-03-04T20:49:04.890Z,13.60
2023-03-04T20:51:34.312Z,9.27
2023-03-04T20:54:04.468Z,10.40
2023-03-04T20:56:33.544Z,9.03
2023-03-04T20:59:04.735Z,17.57
2023-03-04T21:01:33.982Z,12.73
2023-03-04T21:04:03.957Z,10.53
2023-03-04T21:06:33.049Z,10.63
2023-03-04T21:09:05.101Z,12.23
2023-03-04T21:11:39.968Z,8.90
2023-03-04T21:14:13.895Z,11.23
2023-03-04T21:16:42.636Z,12.73
2023-03-04T21:19:18.158Z,9.87
2023-03-04T21:21:48.204Z,10.23
2023-03-04T21:24:19.284Z,11.20
2023-03-04T21:26:48.440Z,8.50
2023-03-04T21:29:19.531Z,12.73
2023-03-04T21:31:52.659Z,14.23
2023-03-04T21:34:27.020Z,8.70
2023-03-04T21:36:55.290Z,15.03
2023-03-04T21:39:25.206Z,13.60
2023-03-04T21:41:54.521Z,11.40
2023-03-04T21:44:33.241Z,11.30
2023-03-04T21:47:02.992Z,14.17
2023-03-04T21:49:32.667Z,7.93
2023-03-04T21:52:01.193Z,14.67
2023-03-04T21:54:29.497Z,10.17
2023-03-04T21:56:57.754Z,7.97
2023-03-04T21:59:26.057Z,11.73
2023-03-04T22:01:55.021Z,12.20
2023-03-04T22:04:23.333Z,8.37
2023-03-04T22:06:52.883Z,10.27
2023-03-04T22:09:21.214Z,10.40
2023-03-04T22:11:49.588Z,9.77
2023-03-04T22:14:17.814Z,14.37
2023-03-04T22:16:54.352Z,12.63
2023-03-04T22:19:24.994Z,13.47
2023-03-04T22:21:55.218Z,9.07
2023-03-04T22:24:24.561Z,8.73
2023-03-04T22:26:56.791Z,11.60
2023-03-04T22:29:25.111Z,8.03
2023-03-04T22:31:53.852Z,12.07
2023-03-04T22:34:22.157Z,13.03
2023-03-04T22:36:50.613Z,13.77
2023-03-04T22:39:20.514Z,10.17
2023-03-04T22:41:49.541Z,11.27
2023-03-04T22:44:17.848Z,9.20
2023-03-04T22:46:46.520Z,15.47
2023-03-04T22:49:15.865Z,12.83
2023-03-04T22:51:45.920Z,18.47
2023-03-04T22:54:17.064Z,10.73
2023-03-04T22:56:47.026Z,13.30
2023-03-04T22:59:15.402Z,12.37
2023-03-04T23:01:43.972Z,10.30
2023-03-04T23:04:12.425Z,16.33
2023-03-04T23:06:40.696Z,10.80
2023-03-04T23:09:09.061Z,11.10
2023-03-04T23:11:38.755Z,8.93
2023-03-04T23:14:11.765Z,8.27
2023-03-04T23:16:44.131Z,11.17
2023-03-04T23:19:15.377Z,9.00
2023-03-04T23:21:44.990Z,9.63
2023-03-04T23:24:14.622Z,11.10
2023-03-04T23:26:45.135Z,7.10
2023-03-04T23:29:17.269Z,8.93
2023-03-04T23:31:45.685Z,10.27
2023-03-04T23:34:14.295Z,11.07
2023-03-04T23:36:43.327Z,7.57
2023-03-04T23:39:14.117Z,8.70
2023-03-04T23:41:43.529Z,7.73
2023-03-04T23:44:14.371Z,10.77
2023-03-04T23:46:43.052Z,9.17
2023-03-04T23:49:14.639Z,7.60
2023-03-04T23:51:44.247Z,7.23
2023-03-04T23:54:12.835Z,10.07
2023-03-04T23:56:42.088Z,11.00
2023-03-04T23:59:11.880Z,11.27
